Time;durP1;ratioP1;P1;durP2;ratioP2;P2;SDS_P1;SDS_P2;PMS_P1;PMS_P2;Temp;Humidity;BMP_temperature;BMP_pressure;BME280_temperature;BME280_humidity;BME280_pressure;Samples;Min_cycle;Max_cycle;Signal;HPM_P1;HPM_P2
2023/02/26 00:00:37;;;;;;;8.77;4.03;;;-1.40;99.90;;;;;;6171822;23;20209;-86
2023/02/26 04:27:27;;;;;;;6.53;2.60;;;-1.30;99.90;;;;;;6177896;23;20280;-87
2023/02/26 05:09:08;;;;;;;5.38;3.50;;;-1.50;99.90;;;;;;6173712;23;20197;-82
2023/02/26 05:11:35;;;;;;;4.22;3.40;;;-1.90;99.90;;;;;;6192100;23;20213;-82
2023/02/26 05:14:02;;;;;;;9.57;4.10;;;-2.10;99.90;;;;;;6192839;23;20176;-82
2023/02/26 05:16:29;;;;;;;10.30;5.60;;;-1.90;99.90;;;;;;6192407;23;20186;-82
2023/02/26 05:18:55;;;;;;;6.30;5.43;;;-2.40;99.90;;;;;;6192381;23;20194;-82
2023/02/26 05:21:22;;;;;;;8.10;7.40;;;-2.30;99.90;;;;;;6193094;23;20245;-82
2023/02/26 05:23:49;;;;;;;8.88;8.18;;;-2.40;99.90;;;;;;6193121;23;20193;-82
2023/02/26 05:26:18;;;;;;;7.75;7.05;;;-2.40;99.90;;;;;;6193461;23;20181;-82
2023/02/26 05:28:45;;;;;;;5.78;5.18;;;-2.40;99.90;;;;;;6192583;23;20491;-82
2023/02/26 05:31:12;;;;;;;5.55;5.05;;;-2.10;99.90;;;;;;6192605;23;20165;-82
2023/02/26 05:33:39;;;;;;;3.42;2.45;;;-1.90;99.90;;;;;;6192485;23;20268;-81
2023/02/26 05:36:07;;;;;;;3.63;3.22;;;-1.70;99.90;;;;;;6193698;23;20196;-82
2023/02/26 05:38:34;;;;;;;4.82;4.32;;;-1.50;99.90;;;;;;6192812;23;20172;-82
2023/02/26 05:41:03;;;;;;;5.55;5.05;;;-1.30;99.90;;;;;;6192702;23;20186;-82
2023/02/26 05:43:32;;;;;;;4.82;4.38;;;-1.30;99.90;;;;;;6192965;23;20189;-82
2023/02/26 05:45:59;;;;;;;5.78;4.18;;;-1.50;99.90;;;;;;6192138;23;20170;-84
2023/02/26 05:48:27;;;;;;;8.60;4.55;;;-1.40;99.90;;;;;;6191535;23;20232;-82
2023/02/26 05:50:54;;;;;;;6.07;4.55;;;-1.40;99.90;;;;;;6192261;23;20248;-82
2023/02/26 05:53:21;;;;;;;14.30;5.07;;;-1.20;99.90;;;;;;6191806;23;20193;-82
2023/02/26 05:55:49;;;;;;;5.00;4.20;;;-1.30;99.90;;;;;;6193130;23;20225;-82
2023/02/26 05:58:16;;;;;;;4.35;3.95;;;-1.40;99.90;;;;;;6192610;23;20174;-82
2023/02/26 06:00:45;;;;;;;3.95;3.22;;;-1.20;99.90;;;;;;6193639;23;20498;-83
2023/02/26 06:03:12;;;;;;;6.05;4.82;;;-1.30;99.90;;;;;;6192130;23;20193;-83
2023/02/26 06:05:39;;;;;;;3.60;3.20;;;-1.30;99.90;;;;;;6192627;23;20170;-82
2023/02/26 06:23:44;;;;;;;5.45;2.60;;;-1.30;99.90;;;;;;6179788;23;20205;-81
2023/02/26 06:26:11;;;;;;;5.95;3.22;;;-1.20;99.90;;;;;;6157151;23;20166;-81
2023/02/26 06:28:49;;;;;;;5.57;2.58;;;-1.20;99.90;;;;;;6193295;23;20252;-81
2023/02/26 06:31:18;;;;;;;6.15;3.05;;;-1.40;99.90;;;;;;6183965;23;20205;-82
2023/02/26 06:33:45;;;;;;;4.78;3.25;;;-1.40;99.90;;;;;;6163382;23;20192;-81
2023/02/26 06:36:12;;;;;;;3.67;2.92;;;-1.10;99.90;;;;;;6163176;23;20237;-81
2023/02/26 06:38:39;;;;;;;6.68;3.40;;;-1.30;99.90;;;;;;6162990;23;20208;-80
2023/02/26 06:41:08;;;;;;;11.63;3.10;;;-1.40;99.90;;;;;;6163735;23;20674;-80
2023/02/26 06:43:35;;;;;;;8.75;3.25;;;-1.40;99.90;;;;;;6163191;23;20193;-81
2023/02/26 06:48:40;;;;;;;3.30;2.20;;;-1.50;99.90;;;;;;6151838;23;20202;-80
2023/02/26 06:51:10;;;;;;;6.43;3.22;;;-1.30;99.90;;;;;;6153769;23;20459;-81
2023/02/26 06:53:37;;;;;;;3.60;2.40;;;-1.20;99.90;;;;;;6164836;23;20503;-81
2023/02/26 06:56:21;;;;;;;4.15;3.08;;;-1.30;99.90;;;;;;6164791;23;20670;-80
2023/02/26 06:58:54;;;;;;;4.80;2.10;;;-1.30;99.90;;;;;;6164320;23;20163;-80
2023/02/26 07:03:49;;;;;;;4.72;3.33;;;-1.20;99.90;;;;;;6180477;23;20264;-81
2023/02/26 07:06:16;;;;;;;4.95;3.45;;;-1.20;99.90;;;;;;6193895;23;20162;-79
2023/02/26 07:08:44;;;;;;;10.37;3.27;;;-1.10;99.90;;;;;;6183754;23;20253;-80
2023/02/26 07:11:11;;;;;;;5.38;3.70;;;-1.20;99.90;;;;;;6194167;23;20417;-80
2023/02/26 07:13:42;;;;;;;8.88;2.55;;;-1.10;99.90;;;;;;6193994;23;20210;-81
2023/02/26 07:16:09;;;;;;;7.32;2.25;;;-1.00;99.90;;;;;;6194821;23;20173;-80
2023/02/26 07:18:37;;;;;;;4.68;2.42;;;-0.80;99.90;;;;;;6192914;23;20556;-83
2023/02/26 07:21:05;;;;;;;3.47;2.33;;;-0.90;99.90;;;;;;6194238;23;20170;-81
2023/02/26 07:23:32;;;;;;;4.57;2.35;;;-0.90;99.90;;;;;;6194382;23;20186;-81
2023/02/26 07:25:59;;;;;;;6.53;2.50;;;-0.70;99.90;;;;;;6193932;23;20224;-81
2023/02/26 07:28:26;;;;;;;6.68;1.67;;;-0.70;99.90;;;;;;6193706;23;20177;-81
2023/02/26 07:38:42;;;;;;;3.70;2.08;;;-0.40;99.90;;;;;;6183826;23;20792;-83
2023/02/26 07:48:58;;;;;;;5.63;2.65;;;-0.40;99.90;;;;;;6179098;23;20205;-82
2023/02/26 07:51:33;;;;;;;4.97;2.22;;;-0.30;99.90;;;;;;6184082;23;20170;-84
2023/02/26 08:17:10;;;;;;;5.72;2.30;;;0.10;99.90;;;;;;6184169;23;20433;-83
2023/02/26 08:19:37;;;;;;;3.53;1.80;;;0.10;99.90;;;;;;6192317;23;20168;-83
2023/02/26 08:22:13;;;;;;;7.83;2.33;;;0.20;99.90;;;;;;6193155;23;20441;-84
2023/02/26 08:24:49;;;;;;;6.00;3.03;;;0.30;99.90;;;;;;6192304;23;20417;-83
2023/02/26 08:27:21;;;;;;;4.70;1.97;;;0.20;99.90;;;;;;6193809;23;20994;-84
2023/02/26 08:35:03;;;;;;;5.17;2.20;;;0.60;99.90;;;;;;6175684;23;20440;-84
2023/02/26 08:37:33;;;;;;;6.83;2.23;;;0.70;99.90;;;;;;6192955;23;20440;-84
2023/02/26 08:42:26;;;;;;;7.13;1.90;;;0.60;99.90;;;;;;6180267;23;20529;-85
2023/02/26 08:50:45;;;;;;;4.63;1.60;;;0.90;99.90;;;;;;6194736;23;20807;-91
2023/02/26 08:56:54;;;;;;;4.00;1.90;;;0.90;99.90;;;;;;5962832;23;20424;-96
2023/02/26 08:59:55;;;;;;;4.90;2.50;;;1.00;99.90;;;;;;6055100;23;20448;-91
2023/02/26 09:03:19;;;;;;;5.17;2.73;;;1.00;99.90;;;;;;6134769;23;20414;-95
2023/02/26 09:19:40;;;;;;;4.90;2.00;;;1.50;97.10;;;;;;6184141;23;20464;-86
2023/02/26 09:22:08;;;;;;;7.93;2.50;;;1.70;96.20;;;;;;6184244;23;20496;-87
2023/02/26 09:24:36;;;;;;;10.20;3.20;;;1.70;96.50;;;;;;6194877;23;20485;-92
2023/02/26 09:27:03;;;;;;;8.57;3.83;;;1.90;96.30;;;;;;6195679;23;20412;-89
2023/02/26 09:29:33;;;;;;;4.80;2.27;;;2.10;95.20;;;;;;6194785;23;20409;-93
2023/02/26 09:32:00;;;;;;;7.00;2.17;;;2.40;91.80;;;;;;6182165;23;20496;-88
2023/02/26 09:34:27;;;;;;;4.70;2.17;;;2.70;93.10;;;;;;6193401;23;20464;-92
2023/02/26 09:37:04;;;;;;;6.07;2.17;;;3.20;91.00;;;;;;6192931;23;20513;-91
2023/02/26 09:47:24;;;;;;;4.37;1.50;;;3.80;83.00;;;;;;6179673;23;20491;-85
2023/02/26 09:49:54;;;;;;;4.47;1.73;;;4.10;82.60;;;;;;6195678;23;20412;-91
2023/02/26 09:57:43;;;;;;;13.73;4.30;;;4.50;80.00;;;;;;6182348;23;20440;-88
2023/02/26 10:00:24;;;;;;;7.00;2.03;;;5.00;79.10;;;;;;6194787;23;20408;-87
2023/02/26 10:18:40;;;;;;;7.40;2.00;;;5.00;70.90;;;;;;6180918;23;20437;-89
2023/02/26 10:31:59;;;;;;;6.47;1.90;;;5.40;68.50;;;;;;6186398;23;20421;-87
2023/02/26 10:39:45;;;;;;;4.53;1.70;;;5.60;65.60;;;;;;6185501;23;20428;-88
2023/02/26 10:58:12;;;;;;;7.10;2.53;;;4.90;62.50;;;;;;6185425;22;2564334;-85
2023/02/26 11:03:16;;;;;;;5.90;2.10;;;4.50;64.40;;;;;;6177742;22;20785;-88
2023/02/26 11:05:49;;;;;;;4.73;1.70;;;5.30;65.50;;;;;;6172289;23;20831;-88
2023/02/26 13:39:10;;;;;;;9.00;1.33;;;7.60;24.80;;;;;;6236500;22;20477;-81
2023/02/26 17:12:52;;;;;;;5.80;2.83;;;1.80;58.00;;;;;;6219904;22;20488;-83
2023/02/26 17:15:26;;;;;;;5.13;2.73;;;1.70;60.50;;;;;;6254612;23;20958;-83
2023/02/26 17:17:58;;;;;;;6.90;2.70;;;1.40;61.50;;;;;;6254794;23;20399;-84
2023/02/26 17:22:58;;;;;;;5.40;2.47;;;1.40;64.10;;;;;;6235259;22;20499;-82
2023/02/26 17:25:29;;;;;;;4.30;2.00;;;1.40;65.50;;;;;;6213582;23;20511;-83
2023/02/26 17:27:58;;;;;;;6.63;2.67;;;1.20;66.70;;;;;;6214476;23;20711;-83
2023/02/26 17:30:28;;;;;;;5.40;2.80;;;1.40;65.90;;;;;;6223709;23;20416;-83
2023/02/26 17:32:57;;;;;;;8.43;2.57;;;1.20;66.60;;;;;;6222928;23;20411;-82
2023/02/26 17:35:24;;;;;;;6.10;3.50;;;1.30;68.30;;;;;;6223071;23;20459;-82
2023/02/26 17:37:52;;;;;;;10.80;4.10;;;0.90;68.40;;;;;;6223360;23;20419;-82
2023/02/26 17:40:21;;;;;;;10.53;3.30;;;0.90;69.50;;;;;;6223922;23;20422;-82
2023/02/26 17:42:50;;;;;;;7.73;3.43;;;1.00;68.80;;;;;;6223568;23;20416;-82
2023/02/26 17:45:19;;;;;;;5.20;3.07;;;0.70;70.10;;;;;;6223355;23;20486;-82
2023/02/26 17:47:48;;;;;;;7.07;3.10;;;0.30;72.40;;;;;;6223739;23;20503;-82
2023/02/26 17:50:26;;;;;;;5.80;3.20;;;0.50;72.10;;;;;;6223277;23;20170;-82
2023/02/26 17:52:53;;;;;;;4.83;2.40;;;0.30;71.90;;;;;;6223292;23;20422;-82
2023/02/26 17:55:20;;;;;;;8.73;3.50;;;0.30;72.70;;;;;;6222666;23;20440;-82
2023/02/26 17:57:47;;;;;;;7.97;4.13;;;0.40;74.70;;;;;;6223708;23;20408;-82
2023/02/26 18:00:16;;;;;;;7.27;3.10;;;0.20;74.70;;;;;;6223400;23;20416;-83
2023/02/26 18:05:11;;;;;;;27.10;11.20;;;0.00;78.60;;;;;;6180284;23;20448;-83
2023/02/26 18:07:41;;;;;;;13.93;6.20;;;-0.20;79.00;;;;;;6157258;23;20437;-84
2023/02/26 18:10:17;;;;;;;8.95;4.10;;;-0.30;82.00;;;;;;6156720;23;20808;-84
2023/02/26 18:12:44;;;;;;;8.30;5.27;;;-0.30;84.50;;;;;;6193683;23;20156;-84
2023/02/26 18:15:13;;;;;;;13.53;5.40;;;-0.40;85.30;;;;;;6193197;23;20487;-84
2023/02/26 18:17:53;;;;;;;18.75;8.20;;;-0.40;85.90;;;;;;6193141;23;20409;-83
2023/02/26 18:20:22;;;;;;;8.00;4.53;;;-0.40;88.40;;;;;;6192140;23;20506;-84
2023/02/26 18:22:53;;;;;;;8.10;4.87;;;-0.60;87.80;;;;;;6191931;23;20170;-83
2023/02/26 18:25:20;;;;;;;7.47;4.40;;;-0.70;88.80;;;;;;6192723;23;20435;-83
2023/02/26 18:27:58;;;;;;;8.63;4.00;;;-0.80;89.00;;;;;;6191881;23;20464;-84
2023/02/26 18:32:54;;;;;;;10.03;4.07;;;-0.60;90.90;;;;;;6187508;23;20441;-84
2023/02/26 18:35:21;;;;;;;6.70;3.80;;;-0.50;91.00;;;;;;6183169;23;20236;-84
2023/02/26 18:37:51;;;;;;;7.20;3.73;;;-0.50;90.30;;;;;;6183455;23;20412;-85
2023/02/26 18:40:20;;;;;;;7.47;3.70;;;-0.40;90.50;;;;;;6192748;23;20792;-84
2023/02/26 18:42:48;;;;;;;7.37;3.80;;;-0.20;90.10;;;;;;6193923;23;20176;-83
2023/02/26 18:45:15;;;;;;;7.93;4.70;;;-0.20;90.40;;;;;;6193349;23;20955;-84
2023/02/26 18:47:44;;;;;;;6.80;3.63;;;0.00;89.50;;;;;;6193032;23;20943;-84
2023/02/26 18:52:38;;;;;;;8.50;5.10;;;0.00;88.60;;;;;;6184287;23;20445;-84
2023/02/26 18:55:07;;;;;;;7.70;4.67;;;0.00;89.40;;;;;;6167131;23;20507;-84
2023/02/26 18:57:34;;;;;;;8.50;4.87;;;-0.40;89.00;;;;;;6193573;23;20420;-84
2023/02/26 19:00:01;;;;;;;7.40;3.93;;;-0.30;90.70;;;;;;6192034;23;20643;-84
2023/02/26 19:02:28;;;;;;;7.33;4.77;;;-0.50;90.70;;;;;;6192953;23;20416;-84
2023/02/26 19:04:55;;;;;;;9.13;4.27;;;-0.70;91.00;;;;;;6192648;23;20512;-83
2023/02/26 19:07:22;;;;;;;7.90;4.85;;;-0.70;90.60;;;;;;6193589;23;20433;-84
2023/02/26 19:09:50;;;;;;;8.57;3.90;;;-0.60;90.70;;;;;;6194994;23;20642;-84
2023/02/26 19:12:19;;;;;;;9.90;5.00;;;-0.60;90.60;;;;;;6195696;23;20480;-84
2023/02/26 19:14:46;;;;;;;8.83;4.03;;;-0.50;90.30;;;;;;6195539;23;20440;-84
2023/02/26 19:17:14;;;;;;;8.60;4.93;;;-0.40;91.60;;;;;;6195740;23;20475;-84
2023/02/26 19:19:41;;;;;;;11.47;5.30;;;-0.40;90.90;;;;;;6195209;23;20447;-84
2023/02/26 19:22:09;;;;;;;9.83;4.47;;;-0.20;90.80;;;;;;6195214;23;20416;-84
2023/02/26 19:24:36;;;;;;;7.77;4.20;;;-0.30;91.00;;;;;;6194789;23;20437;-84
2023/02/26 19:27:05;;;;;;;11.63;4.72;;;-0.40;91.00;;;;;;6194845;23;20928;-84
2023/02/26 19:29:35;;;;;;;13.07;5.90;;;-0.20;91.00;;;;;;6194373;23;20177;-84
2023/02/26 19:40:08;;;;;;;;;;;;;;;;;;;;;
2023/02/26 22:33:36;;;;;;;7.93;4.32;;;-1.40;99.90;;;;;;6235997;22;20187;-87
2023/02/26 22:36:10;;;;;;;7.18;3.95;;;-1.30;99.90;;;;;;6222958;23;20197;-87
2023/02/26 22:38:37;;;;;;;8.30;3.60;;;-1.10;99.90;;;;;;6223451;23;20223;-87
2023/02/26 22:41:04;;;;;;;8.70;4.50;;;-0.80;99.90;;;;;;6223472;23;20416;-87
2023/02/26 22:43:31;;;;;;;5.97;3.08;;;-0.70;99.90;;;;;;6223403;23;20176;-87
2023/02/26 22:45:58;;;;;;;4.63;2.85;;;-0.70;99.10;;;;;;6223552;23;20208;-87
2023/02/26 22:48:29;;;;;;;7.07;3.17;;;-0.60;98.90;;;;;;6223144;23;20184;-87
2023/02/26 22:50:58;;;;;;;4.73;2.67;;;-0.60;99.50;;;;;;6223569;23;20416;-87
2023/02/26 22:53:25;;;;;;;5.67;3.20;;;-0.60;99.10;;;;;;6223681;23;20419;-87
2023/02/26 22:55:53;;;;;;;4.65;2.58;;;-0.60;98.90;;;;;;6223829;23;20443;-88
2023/02/26 22:58:20;;;;;;;6.40;3.90;;;-0.50;98.00;;;;;;6223181;23;20207;-88
2023/02/26 23:00:51;;;;;;;6.87;3.17;;;-0.40;97.70;;;;;;6222653;23;20412;-87
2023/02/26 23:03:18;;;;;;;7.17;3.53;;;-0.50;97.40;;;;;;6222236;23;20416;-87
2023/02/26 23:05:45;;;;;;;5.63;3.10;;;-0.50;97.60;;;;;;6222452;23;20424;-86
2023/02/26 23:08:14;;;;;;;5.20;2.83;;;-0.70;97.40;;;;;;6222728;23;20185;-86
